This is the latest recevied weather packets stored in our database for station/object SP6W-10. If no packets are shown the sender has not sent any weather packets the latest 10 day(s).
| Time | Temp. | Humidity | Pressure | Rain* | Wind** | Luminosity | Snow |
|---|---|---|---|---|---|---|---|
| 1777304570 | 28.33° C | 16% | 1021.8 hPa | - | - | - | - |
| 1777302770 | 28.33° C | 16% | 1021.8 hPa | - | - | - | - |
| 1777299170 | 27.22° C | 17% | 1022.4 hPa | - | - | - | - |
| 1777297370 | 27.22° C | 16% | 1022.6 hPa | - | - | - | - |
| 1777295570 | 26.67° C | 18% | 1022.9 hPa | - | - | - | - |
| 1777291970 | 25° C | 19% | 1023.4 hPa | - | - | - | - |
| 1777290170 | 24.44° C | 19% | 1023.6 hPa | - | - | - | - |
| 1777288370 | 23.89° C | 21% | 1023.8 hPa | - | - | - | - |
| 1777286570 | 23.33° C | 22% | 1024 hPa | - | - | - | - |
| 1777284770 | 22.78° C | 22% | 1024.3 hPa | - | - | - | - |
| 1777282970 | 22.22° C | 24% | 1024.5 hPa | - | - | - | - |
| 1777281170 | 22.22° C | 24% | 1024.7 hPa | - | - | - | - |
| 1777279370 | 22.22° C | 24% | 1024.9 hPa | - | - | - | - |
| 1777275769 | 21.67° C | 24% | 1024.9 hPa | - | - | - | - |
| 1777272169 | 21.11° C | 23% | 1025 hPa | - | - | - | - |
| 1777270369 | 21.11° C | 23% | 1024.9 hPa | - | - | - | - |
| 1777268569 | 21.11° C | 23% | 1025 hPa | - | - | - | - |
| 1777266769 | 20.56° C | 21% | 1024.8 hPa | - | - | - | - |
| 1777263169 | 20.56° C | 19% | 1024.6 hPa | - | - | - | - |
| 1777261369 | 20.56° C | 19% | 1024.5 hPa | - | - | - | - |
| 1777257769 | 21.11° C | 19% | 1024.7 hPa | - | - | - | - |
| 1777255969 | 21.67° C | 19% | 1024.9 hPa | - | - | - | - |
| 1777254169 | 21.67° C | 19% | 1024.8 hPa | - | - | - | - |
| 1777252369 | 22.22° C | 19% | 1024.7 hPa | - | - | - | - |
| 1777250569 | 22.78° C | 18% | 1024.8 hPa | - | - | - | - |
* Rain since midnight (hover to see other rain measurements)
** Current wind speed in m/s (hover to see current wind gust speed)